createdAt,value
2022-07-27T00:01:39.928Z,15.10
2022-07-27T00:04:10.576Z,15.20
2022-07-27T00:06:37.321Z,15.20
2022-07-27T00:09:04.237Z,15.10
2022-07-27T00:11:30.850Z,15.20
2022-07-27T00:13:57.629Z,15.20
2022-07-27T00:16:24.370Z,15.20
2022-07-27T00:18:51.016Z,15.20
2022-07-27T00:21:17.646Z,15.20
2022-07-27T00:23:44.416Z,15.30
2022-07-27T00:26:11.147Z,15.30
2022-07-27T00:28:37.850Z,15.20
2022-07-27T00:31:04.562Z,15.10
2022-07-27T00:33:31.563Z,15.20
2022-07-27T00:35:58.953Z,15.10
2022-07-27T00:38:25.631Z,15.10
2022-07-27T00:40:52.249Z,15.10
2022-07-27T00:43:19.006Z,15.10
2022-07-27T00:45:45.662Z,15.10
2022-07-27T00:48:12.375Z,15.10
2022-07-27T00:50:42.186Z,15.00
2022-07-27T00:53:09.846Z,15.00
2022-07-27T00:55:39.374Z,15.00
2022-07-27T00:58:08.576Z,15.10
2022-07-27T01:00:39.905Z,15.10
2022-07-27T01:03:07.473Z,15.10
2022-07-27T01:05:37.916Z,15.20
2022-07-27T01:08:12.118Z,15.20
2022-07-27T01:10:39.710Z,15.10
2022-07-27T01:13:06.333Z,15.10
2022-07-27T01:15:40.330Z,15.10
2022-07-27T01:18:12.833Z,15.10
2022-07-27T01:20:43.017Z,15.10
2022-07-27T01:23:11.011Z,15.10
2022-07-27T01:25:40.086Z,15.10
2022-07-27T01:28:06.831Z,15.10
2022-07-27T01:30:35.402Z,15.20
2022-07-27T01:33:03.582Z,15.20
2022-07-27T01:35:30.474Z,15.10
2022-07-27T01:37:57.804Z,15.10
2022-07-27T01:40:24.600Z,15.10
2022-07-27T01:42:51.513Z,15.00
2022-07-27T01:45:18.155Z,15.00
2022-07-27T01:47:44.832Z,15.00
2022-07-27T01:50:11.752Z,15.00
2022-07-27T01:52:39.174Z,15.10
2022-07-27T01:55:10.374Z,15.10
2022-07-27T01:57:38.658Z,15.10
2022-07-27T02:00:08.377Z,15.10
2022-07-27T02:02:34.964Z,15.00
2022-07-27T02:05:02.013Z,15.00
2022-07-27T02:07:28.794Z,15.10
2022-07-27T02:09:55.497Z,15.10
2022-07-27T02:12:37.613Z,15.10
2022-07-27T02:15:15.215Z,15.10
2022-07-27T02:17:43.992Z,15.20
2022-07-27T02:20:13.197Z,15.10
2022-07-27T02:22:40.021Z,15.10
2022-07-27T02:25:08.382Z,15.10
2022-07-27T02:27:35.041Z,15.20
2022-07-27T02:30:02.356Z,15.20
2022-07-27T02:32:29.006Z,15.20
2022-07-27T02:34:55.708Z,15.20
2022-07-27T02:37:22.505Z,15.10
2022-07-27T02:39:49.473Z,15.10
2022-07-27T02:42:16.367Z,15.00
2022-07-27T02:44:42.961Z,15.00
2022-07-27T02:47:09.593Z,15.00
2022-07-27T02:49:36.227Z,14.90
2022-07-27T02:52:04.031Z,14.90
2022-07-27T02:54:32.450Z,14.70
2022-07-27T02:57:02.652Z,14.70
2022-07-27T02:59:29.315Z,14.70
2022-07-27T03:01:56.089Z,14.80
2022-07-27T03:04:23.270Z,14.70
2022-07-27T03:06:50.080Z,14.70
2022-07-27T03:09:16.753Z,14.50
2022-07-27T03:11:43.431Z,14.60
2022-07-27T03:14:10.087Z,14.60
2022-07-27T03:16:36.794Z,14.60
2022-07-27T03:19:03.656Z,14.60
2022-07-27T03:21:30.321Z,14.60
2022-07-27T03:23:56.972Z,14.50
2022-07-27T03:26:23.736Z,14.50
2022-07-27T03:28:50.353Z,14.50
2022-07-27T03:31:17.097Z,14.40
2022-07-27T03:33:43.882Z,14.40
2022-07-27T03:36:10.536Z,14.50
2022-07-27T03:38:37.134Z,14.40
2022-07-27T03:41:03.920Z,14.40
2022-07-27T03:43:30.553Z,14.40
2022-07-27T03:45:57.179Z,14.30
2022-07-27T03:48:23.962Z,14.20
2022-07-27T03:50:50.667Z,14.20
2022-07-27T03:53:17.706Z,14.30
2022-07-27T03:55:44.770Z,14.30
2022-07-27T03:58:11.417Z,14.30
2022-07-27T04:00:38.010Z,14.40
2022-07-27T04:03:04.807Z,14.40
2022-07-27T04:05:31.721Z,14.30
2022-07-27T04:07:58.373Z,14.30
2022-07-27T04:10:26.053Z,14.30
2022-07-27T04:12:58.484Z,14.30
2022-07-27T04:15:26.380Z,14.40
2022-07-27T04:17:56.928Z,14.50
2022-07-27T04:20:24.991Z,14.50
2022-07-27T04:22:51.609Z,14.50
2022-07-27T04:25:18.189Z,14.50
2022-07-27T04:27:44.788Z,14.50
2022-07-27T04:30:12.250Z,14.50
2022-07-27T04:32:39.158Z,14.40
2022-07-27T04:35:07.385Z,14.50
2022-07-27T04:37:34.855Z,14.50
2022-07-27T04:40:01.588Z,14.50
2022-07-27T04:42:29.724Z,14.50
2022-07-27T04:44:56.348Z,14.50
2022-07-27T04:47:22.970Z,14.60
2022-07-27T04:49:49.665Z,14.70
2022-07-27T04:52:16.981Z,14.70
2022-07-27T04:54:44.312Z,14.70
2022-07-27T04:57:10.968Z,14.60
2022-07-27T04:59:37.886Z,14.60
2022-07-27T05:02:06.073Z,14.60
2022-07-27T05:04:32.755Z,14.60
2022-07-27T05:06:59.547Z,14.50
2022-07-27T05:09:26.513Z,14.50
2022-07-27T05:11:54.539Z,14.40
2022-07-27T05:14:21.873Z,14.50
2022-07-27T05:16:49.238Z,14.40
2022-07-27T05:19:16.145Z,14.50
2022-07-27T05:21:43.012Z,14.40
2022-07-27T05:24:10.079Z,14.40
2022-07-27T05:26:37.289Z,14.40
2022-07-27T05:29:03.971Z,14.40
2022-07-27T05:31:30.669Z,14.50
2022-07-27T05:33:58.394Z,14.60
2022-07-27T05:36:26.881Z,14.70
2022-07-27T05:38:53.553Z,14.80
2022-07-27T05:41:25.042Z,14.70
2022-07-27T05:43:52.686Z,14.70
2022-07-27T05:49:10.414Z,14.70
2022-07-27T05:51:38.346Z,14.70
2022-07-27T05:54:05.277Z,14.70
2022-07-27T05:56:31.889Z,14.70
2022-07-27T05:58:59.370Z,14.60
2022-07-27T06:01:28.244Z,14.60
2022-07-27T06:03:54.913Z,14.50
2022-07-27T06:06:40.035Z,14.50
2022-07-27T06:09:07.457Z,14.50
2022-07-27T06:11:34.053Z,14.50
2022-07-27T06:14:00.725Z,14.50
2022-07-27T06:16:27.496Z,14.60
2022-07-27T06:18:54.649Z,14.60
2022-07-27T06:21:27.536Z,14.70
2022-07-27T06:23:55.194Z,14.80
2022-07-27T06:26:23.611Z,14.80
2022-07-27T06:28:50.388Z,14.90
2022-07-27T06:31:17.057Z,15.00
2022-07-27T06:33:46.083Z,15.10
2022-07-27T06:36:15.069Z,15.10
2022-07-27T06:38:41.657Z,15.10
2022-07-27T06:41:08.247Z,15.20
2022-07-27T06:43:34.926Z,15.20
2022-07-27T06:46:03.130Z,15.20
2022-07-27T06:48:29.704Z,15.30
2022-07-27T06:50:57.069Z,15.30
2022-07-27T06:53:24.327Z,15.40
2022-07-27T06:55:50.924Z,15.40
2022-07-27T06:58:18.075Z,15.40
2022-07-27T07:00:45.326Z,15.50
2022-07-27T07:03:12.029Z,15.40
2022-07-27T07:05:46.660Z,15.40
2022-07-27T07:08:14.448Z,15.40
2022-07-27T07:10:43.598Z,15.60
2022-07-27T07:13:10.421Z,15.80
2022-07-27T07:15:39.120Z,15.90
2022-07-27T07:18:07.098Z,16.00
2022-07-27T07:20:35.253Z,16.10
2022-07-27T07:23:01.986Z,16.10
2022-07-27T07:25:28.809Z,16.10
2022-07-27T07:27:56.275Z,16.00
2022-07-27T07:30:23.815Z,16.10
2022-07-27T07:32:50.594Z,16.20
2022-07-27T07:35:17.592Z,16.10
2022-07-27T07:37:44.398Z,16.20
2022-07-27T07:43:01.265Z,16.60
2022-07-27T07:45:29.636Z,16.70
2022-07-27T07:47:57.474Z,16.60
2022-07-27T07:50:25.197Z,16.50
2022-07-27T07:52:53.144Z,16.40
2022-07-27T07:55:21.250Z,16.40
2022-07-27T07:57:48.448Z,16.30
2022-07-27T08:00:18.169Z,16.20
2022-07-27T08:02:45.687Z,16.10
2022-07-27T08:05:12.960Z,16.20
2022-07-27T08:07:40.234Z,16.20
2022-07-27T08:10:09.056Z,16.10
2022-07-27T08:12:42.437Z,16.00
2022-07-27T08:15:10.200Z,16.00
2022-07-27T08:17:36.810Z,16.30
2022-07-27T08:20:04.801Z,16.40
2022-07-27T08:22:33.558Z,16.50
2022-07-27T08:25:00.242Z,16.50
2022-07-27T08:27:26.902Z,16.60
2022-07-27T08:29:53.577Z,16.60
2022-07-27T08:32:21.195Z,16.60
2022-07-27T08:34:47.881Z,16.60
2022-07-27T08:37:15.719Z,16.80
2022-07-27T08:42:31.204Z,16.90
2022-07-27T08:44:58.509Z,17.10
2022-07-27T08:47:27.172Z,17.00
2022-07-27T08:49:54.056Z,17.10
2022-07-27T08:52:21.205Z,17.30
2022-07-27T08:54:47.909Z,17.30
2022-07-27T08:57:15.150Z,17.50
2022-07-27T08:59:41.722Z,17.80
2022-07-27T09:02:12.881Z,17.70
2022-07-27T09:04:42.448Z,17.60
2022-07-27T09:07:09.135Z,17.30
2022-07-27T09:09:45.741Z,17.30
2022-07-27T09:12:12.689Z,17.40
2022-07-27T09:14:41.184Z,17.50
2022-07-27T09:17:48.033Z,17.30
2022-07-27T09:20:18.456Z,17.40
2022-07-27T09:22:52.592Z,17.30
2022-07-27T09:26:00.768Z,17.30
2022-07-27T09:28:30.108Z,17.30
2022-07-27T09:31:12.108Z,17.30
2022-07-27T09:33:47.398Z,17.30
2022-07-27T09:36:14.704Z,17.20
2022-07-27T09:39:02.793Z,17.20
2022-07-27T09:41:46.035Z,17.40
2022-07-27T09:44:31.962Z,17.60
2022-07-27T09:46:59.696Z,17.60
2022-07-27T09:49:32.146Z,17.50
2022-07-27T09:52:02.037Z,17.40
2022-07-27T09:54:43.378Z,17.40
2022-07-27T09:57:10.458Z,17.50
2022-07-27T09:59:37.146Z,17.60
2022-07-27T10:02:05.087Z,17.60
2022-07-27T10:04:33.430Z,17.60
2022-07-27T10:07:03.301Z,17.80
2022-07-27T10:09:32.738Z,18.00
2022-07-27T10:11:59.701Z,18.00
2022-07-27T10:14:26.361Z,18.10
2022-07-27T10:16:54.978Z,18.20
2022-07-27T10:19:46.086Z,18.20
2022-07-27T10:22:14.168Z,18.70
2022-07-27T10:24:40.768Z,18.80
2022-07-27T10:27:29.993Z,18.90
2022-07-27T10:29:57.843Z,18.50
2022-07-27T10:32:27.492Z,18.50
2022-07-27T10:34:54.224Z,18.60
2022-07-27T10:37:28.672Z,18.50
2022-07-27T10:40:19.238Z,18.30
2022-07-27T10:42:53.617Z,18.10
2022-07-27T10:45:21.443Z,18.10
2022-07-27T10:47:50.878Z,17.90
2022-07-27T10:50:17.471Z,17.80
2022-07-27T10:52:50.411Z,17.70
2022-07-27T10:55:36.381Z,17.80
2022-07-27T10:58:15.339Z,17.90
2022-07-27T11:00:55.140Z,18.00
2022-07-27T11:03:33.049Z,17.80
2022-07-27T11:06:32.502Z,17.80
2022-07-27T11:09:52.540Z,18.00
2022-07-27T11:11:53.467Z,17.70
2022-07-27T11:14:30.471Z,17.50
2022-07-27T11:17:12.387Z,17.40
2022-07-27T11:19:51.559Z,17.60
2022-07-27T11:25:19.198Z,17.50
2022-07-27T11:27:48.317Z,17.80
2022-07-27T11:30:23.104Z,17.90
2022-07-27T11:32:49.872Z,18.10
2022-07-27T11:35:19.960Z,17.90
2022-07-27T11:38:00.069Z,17.80
2022-07-27T11:43:14.576Z,17.60
2022-07-27T11:45:42.869Z,17.60
2022-07-27T11:48:17.189Z,17.50
2022-07-27T11:50:58.942Z,17.40
2022-07-27T11:53:27.065Z,17.40
2022-07-27T11:55:53.806Z,17.70
2022-07-27T11:58:22.875Z,17.90
2022-07-27T12:00:49.506Z,17.90
2022-07-27T12:03:20.698Z,17.80
2022-07-27T12:05:58.287Z,17.70
2022-07-27T12:08:25.868Z,17.70
2022-07-27T12:10:59.764Z,17.70
2022-07-27T12:13:33.900Z,17.80
2022-07-27T12:16:00.825Z,17.80
2022-07-27T12:18:42.348Z,17.90
2022-07-27T12:21:19.465Z,17.90
2022-07-27T12:23:50.917Z,17.80
2022-07-27T12:26:30.139Z,17.90
2022-07-27T12:29:11.688Z,17.90
2022-07-27T12:31:49.117Z,17.90
2022-07-27T12:34:15.968Z,17.80
2022-07-27T12:36:43.109Z,17.80
2022-07-27T12:39:26.611Z,17.80
2022-07-27T12:42:04.386Z,17.80
2022-07-27T12:44:36.478Z,18.10
2022-07-27T12:47:27.602Z,18.10
2022-07-27T12:50:07.363Z,18.20
2022-07-27T12:52:36.749Z,18.20
2022-07-27T12:55:04.850Z,18.00
2022-07-27T12:57:54.140Z,18.10
2022-07-27T13:00:19.229Z,18.10
2022-07-27T13:02:46.404Z,18.20
2022-07-27T13:05:14.925Z,18.20
2022-07-27T13:07:43.850Z,18.10
2022-07-27T13:10:12.510Z,18.20
2022-07-27T13:12:39.200Z,18.00
2022-07-27T13:15:07.952Z,18.20
2022-07-27T13:17:35.811Z,18.30
2022-07-27T13:20:04.064Z,18.30
2022-07-27T13:22:30.817Z,18.30
2022-07-27T13:24:57.406Z,18.30
2022-07-27T13:27:23.982Z,18.20
2022-07-27T13:29:50.670Z,18.20
2022-07-27T13:32:18.346Z,18.10
2022-07-27T13:34:45.174Z,18.00
2022-07-27T13:37:11.799Z,18.00
2022-07-27T13:39:38.484Z,18.10
2022-07-27T13:42:05.305Z,18.20
2022-07-27T13:44:59.453Z,18.20
2022-07-27T13:47:18.956Z,18.40
2022-07-27T13:49:45.590Z,18.70
2022-07-27T13:52:14.779Z,18.90
2022-07-27T13:54:41.905Z,18.50
2022-07-27T13:57:08.993Z,18.60
2022-07-27T13:59:35.848Z,18.70
2022-07-27T14:02:02.546Z,18.80
2022-07-27T14:04:29.319Z,18.90
2022-07-27T14:06:58.725Z,19.00
2022-07-27T14:09:45.296Z,19.30
2022-07-27T14:12:12.041Z,19.30
2022-07-27T14:14:38.765Z,19.30
2022-07-27T14:17:05.430Z,19.40
2022-07-27T14:19:32.161Z,19.60
2022-07-27T14:21:58.862Z,19.60
2022-07-27T14:24:25.627Z,19.80
2022-07-27T14:26:52.221Z,19.70
2022-07-27T14:29:18.850Z,19.50
2022-07-27T14:31:45.790Z,19.70
2022-07-27T14:34:12.404Z,19.80
2022-07-27T14:36:39.011Z,19.60
2022-07-27T14:39:05.761Z,19.00
2022-07-27T14:41:32.371Z,19.00
2022-07-27T14:43:59.007Z,19.00
2022-07-27T14:46:25.730Z,19.10
2022-07-27T14:49:07.912Z,19.30
2022-07-27T14:51:35.446Z,19.40
2022-07-27T14:54:03.186Z,19.70
2022-07-27T14:56:29.953Z,20.00
2022-07-27T14:58:56.553Z,20.00
2022-07-27T15:01:23.467Z,20.00
2022-07-27T15:03:50.152Z,19.90
2022-07-27T15:06:17.242Z,19.80
2022-07-27T15:08:43.828Z,19.60
2022-07-27T15:11:10.850Z,19.80
2022-07-27T15:13:37.952Z,19.90
2022-07-27T15:16:05.407Z,20.30
2022-07-27T15:18:38.029Z,20.00
2022-07-27T15:21:12.654Z,19.60
2022-07-27T15:23:41.905Z,19.60
2022-07-27T15:26:08.622Z,19.80
2022-07-27T15:28:36.250Z,19.90
2022-07-27T15:31:03.080Z,20.10
2022-07-27T15:33:29.882Z,20.40
2022-07-27T15:35:56.609Z,20.50
2022-07-27T15:38:23.229Z,20.40
2022-07-27T15:40:49.912Z,19.90
2022-07-27T15:43:18.588Z,20.00
2022-07-27T15:45:48.108Z,20.20
2022-07-27T15:48:15.968Z,20.00
2022-07-27T15:50:48.306Z,20.00
2022-07-27T15:53:15.078Z,20.00
2022-07-27T15:55:43.278Z,20.10
2022-07-27T15:58:10.695Z,20.40
2022-07-27T16:00:41.032Z,20.10
2022-07-27T16:03:12.698Z,20.10
2022-07-27T16:05:43.352Z,19.90
2022-07-27T16:08:10.190Z,19.90
2022-07-27T16:10:41.590Z,20.10
2022-07-27T16:13:10.132Z,19.90
2022-07-27T16:15:55.937Z,19.40
2022-07-27T16:18:23.385Z,19.50
2022-07-27T16:20:50.622Z,19.50
2022-07-27T16:23:21.375Z,19.60
2022-07-27T16:26:04.422Z,19.80
2022-07-27T16:28:33.067Z,20.30
2022-07-27T16:30:59.728Z,20.80
2022-07-27T16:33:26.384Z,20.50
2022-07-27T16:35:53.133Z,20.40
2022-07-27T16:38:19.788Z,20.40
2022-07-27T16:40:46.437Z,20.40
2022-07-27T16:43:13.031Z,20.50
2022-07-27T16:45:39.785Z,20.60
2022-07-27T16:48:06.598Z,20.60
2022-07-27T16:50:33.183Z,20.60
2022-07-27T16:53:01.296Z,20.50
2022-07-27T16:55:28.252Z,21.00
2022-07-27T16:57:55.794Z,20.90
2022-07-27T17:00:22.944Z,21.00
2022-07-27T17:02:49.925Z,21.20
2022-07-27T17:05:16.622Z,21.00
2022-07-27T17:07:43.325Z,21.00
2022-07-27T17:10:10.533Z,21.30
2022-07-27T17:12:38.755Z,21.50
2022-07-27T17:15:07.024Z,21.60
2022-07-27T17:17:34.159Z,20.60
2022-07-27T17:20:01.958Z,20.00
2022-07-27T17:22:28.840Z,20.10
2022-07-27T17:24:55.485Z,20.90
2022-07-27T17:27:22.109Z,21.00
2022-07-27T17:29:49.202Z,21.40
2022-07-27T17:32:15.967Z,21.60
2022-07-27T17:34:45.259Z,21.50
2022-07-27T17:37:12.512Z,20.90
2022-07-27T17:39:39.498Z,20.40
2022-07-27T17:42:06.378Z,20.00
2022-07-27T17:44:33.917Z,19.90
2022-07-27T17:47:01.415Z,19.80
2022-07-27T17:49:28.248Z,19.90
2022-07-27T17:51:54.955Z,19.70
2022-07-27T17:54:22.579Z,19.50
2022-07-27T17:56:49.207Z,19.30
2022-07-27T17:59:36.506Z,19.50
2022-07-27T18:02:04.693Z,20.10
2022-07-27T18:04:35.655Z,19.70
2022-07-27T18:07:05.440Z,19.90
2022-07-27T18:09:32.170Z,19.80
2022-07-27T18:11:58.878Z,20.20
2022-07-27T18:14:31.113Z,20.40
2022-07-27T18:16:57.761Z,20.50
2022-07-27T18:19:24.402Z,20.60
2022-07-27T18:21:56.045Z,20.20
2022-07-27T18:24:23.708Z,19.80
2022-07-27T18:26:50.793Z,19.10
2022-07-27T18:29:17.973Z,19.00
2022-07-27T18:31:44.677Z,19.20
2022-07-27T18:34:13.024Z,19.00
2022-07-27T18:36:40.916Z,18.80
2022-07-27T18:39:07.582Z,18.60
2022-07-27T18:41:34.229Z,18.30
2022-07-27T18:44:00.826Z,18.20
2022-07-27T18:46:27.740Z,17.90
2022-07-27T18:48:55.373Z,17.90
2022-07-27T18:51:22.053Z,18.00
2022-07-27T18:53:48.940Z,18.20
2022-07-27T18:56:15.845Z,18.30
2022-07-27T18:58:42.500Z,18.20
2022-07-27T19:01:09.679Z,18.20
2022-07-27T19:03:37.197Z,18.20
2022-07-27T19:06:06.522Z,18.10
2022-07-27T19:08:35.213Z,18.00
2022-07-27T19:11:01.885Z,17.90
2022-07-27T19:13:28.573Z,17.70
2022-07-27T19:15:55.205Z,17.60
2022-07-27T19:18:23.532Z,17.60
2022-07-27T19:20:50.690Z,17.60
2022-07-27T19:23:17.344Z,17.60
2022-07-27T19:25:45.123Z,17.70
2022-07-27T19:28:15.675Z,17.70
2022-07-27T19:30:42.436Z,17.70
2022-07-27T19:33:09.117Z,17.80
2022-07-27T19:35:35.835Z,17.90
2022-07-27T19:38:02.529Z,18.00
2022-07-27T19:40:45.865Z,17.80
2022-07-27T19:43:13.861Z,17.80
2022-07-27T19:45:41.031Z,17.80
2022-07-27T19:48:08.260Z,17.70
2022-07-27T19:50:35.237Z,17.60
2022-07-27T19:53:02.244Z,17.50
2022-07-27T19:55:29.061Z,17.50
2022-07-27T19:57:56.244Z,17.50
2022-07-27T20:00:22.989Z,17.30
2022-07-27T20:02:49.894Z,17.10
2022-07-27T20:05:16.628Z,17.10
2022-07-27T20:07:43.437Z,17.30
2022-07-27T20:10:10.531Z,17.50
2022-07-27T20:12:37.261Z,17.70
2022-07-27T20:15:04.700Z,17.90
2022-07-27T20:17:35.968Z,18.20
2022-07-27T20:20:05.144Z,18.20
2022-07-27T20:22:31.805Z,18.10
2022-07-27T20:24:58.462Z,18.10
2022-07-27T20:27:25.737Z,18.00
2022-07-27T20:29:52.386Z,18.00
2022-07-27T20:32:18.964Z,18.10
2022-07-27T20:34:45.624Z,18.30
2022-07-27T20:37:12.476Z,18.30
2022-07-27T20:39:39.064Z,18.30
2022-07-27T20:42:05.720Z,18.40
2022-07-27T20:44:32.319Z,18.30
2022-07-27T20:46:58.912Z,18.30
2022-07-27T20:49:25.522Z,18.20
2022-07-27T20:51:52.185Z,17.90
2022-07-27T20:54:19.042Z,17.60
2022-07-27T20:56:55.856Z,17.30
2022-07-27T21:02:13.819Z,17.30
2022-07-27T21:04:40.453Z,17.30
2022-07-27T21:07:07.075Z,17.30
2022-07-27T21:09:33.688Z,17.60
2022-07-27T21:12:01.102Z,17.80
2022-07-27T21:14:27.675Z,17.90
2022-07-27T21:16:54.412Z,18.00
2022-07-27T21:19:22.379Z,17.90
2022-07-27T21:21:48.995Z,17.70
2022-07-27T21:24:18.540Z,17.60
2022-07-27T21:26:50.650Z,17.70
2022-07-27T21:29:17.840Z,17.70
2022-07-27T21:31:46.489Z,17.60
2022-07-27T21:34:16.101Z,17.30
2022-07-27T21:36:43.684Z,17.20
2022-07-27T21:39:10.872Z,17.30
2022-07-27T21:41:38.624Z,17.40
2022-07-27T21:44:05.440Z,17.50
2022-07-27T21:46:32.199Z,17.60
2022-07-27T21:48:58.920Z,17.70
2022-07-27T21:51:25.698Z,17.80
2022-07-27T21:53:52.463Z,17.90
2022-07-27T21:56:19.469Z,18.00
2022-07-27T21:58:46.266Z,18.00
2022-07-27T22:01:14.517Z,17.90
2022-07-27T22:03:42.158Z,17.90
2022-07-27T22:06:09.816Z,17.80
2022-07-27T22:08:36.496Z,17.70
2022-07-27T22:11:04.943Z,17.70
2022-07-27T22:13:32.042Z,17.60
2022-07-27T22:15:58.698Z,17.40
2022-07-27T22:18:25.367Z,17.10
2022-07-27T22:20:52.232Z,17.00
2022-07-27T22:23:18.829Z,17.00
2022-07-27T22:25:45.598Z,16.90
2022-07-27T22:28:12.250Z,16.80
2022-07-27T22:30:40.135Z,16.70
2022-07-27T22:33:07.979Z,16.70
2022-07-27T22:35:34.684Z,16.60
2022-07-27T22:38:01.346Z,16.60
2022-07-27T22:40:27.984Z,16.50
2022-07-27T22:42:54.631Z,16.40
2022-07-27T22:45:21.449Z,16.20
2022-07-27T22:47:48.059Z,16.10
2022-07-27T22:50:18.088Z,16.10
2022-07-27T22:52:45.042Z,16.20
2022-07-27T22:55:11.687Z,16.40
2022-07-27T22:57:38.345Z,16.50
2022-07-27T23:00:06.607Z,16.70
2022-07-27T23:02:34.327Z,16.80
2022-07-27T23:05:01.208Z,16.80
2022-07-27T23:07:27.901Z,16.80
2022-07-27T23:09:55.148Z,16.70
2022-07-27T23:12:24.002Z,16.60
2022-07-27T23:14:50.897Z,16.50
2022-07-27T23:17:18.007Z,16.50
2022-07-27T23:19:44.615Z,16.50
2022-07-27T23:22:11.613Z,16.50
2022-07-27T23:24:41.028Z,16.60
2022-07-27T23:27:08.231Z,16.50
2022-07-27T23:29:34.839Z,16.40
2022-07-27T23:32:03.254Z,16.30
2022-07-27T23:34:29.975Z,16.10
2022-07-27T23:36:56.653Z,16.00
2022-07-27T23:39:23.338Z,15.90
2022-07-27T23:41:50.381Z,16.00
2022-07-27T23:44:17.538Z,16.00
2022-07-27T23:46:44.341Z,15.90
2022-07-27T23:49:11.341Z,15.90
2022-07-27T23:51:37.979Z,15.80
2022-07-27T23:54:04.889Z,15.80
2022-07-27T23:56:31.719Z,15.90
2022-07-27T23:58:58.297Z,15.90
